Time;durP1;ratioP1;P1;durP2;ratioP2;P2;SDS_P1;SDS_P2;PMS_P1;PMS_P2;Temp;Humidity;BMP_temperature;BMP_pressure;BME280_temperature;BME280_humidity;BME280_pressure;Samples;Min_cycle;Max_cycle;Signal;HPM_P1;HPM_P2
2021/12/30 00:00:50;;;;;;;1999.90;999.90;;;;;;;2.08;65.45;100309.66;4986162;28;97887;-73
2021/12/30 00:03:18;;;;;;;1999.90;999.90;;;;;;;2.08;66.00;100321.88;5001896;28;100810;-73
2021/12/30 00:05:47;;;;;;;1999.90;999.90;;;;;;;2.07;65.79;100328.84;4990602;28;97579;-71
2021/12/30 00:08:15;;;;;;;1999.90;999.90;;;;;;;2.09;65.76;100328.97;4990953;28;97703;-73
2021/12/30 00:10:44;;;;;;;1999.90;999.90;;;;;;;2.07;65.92;100330.59;4987351;28;97994;-73
2021/12/30 00:13:12;;;;;;;1999.90;999.90;;;;;;;2.07;65.75;100331.47;4990975;28;98175;-73
2021/12/30 00:15:41;;;;;;;1999.90;999.90;;;;;;;2.08;65.75;100327.13;4985873;28;100517;-73
2021/12/30 00:18:11;;;;;;;1999.90;999.90;;;;;;;2.09;65.76;100328.97;4983712;28;100283;-73
2021/12/30 00:20:40;;;;;;;1999.90;999.90;;;;;;;2.07;65.75;100328.84;4986456;28;97134;-74
2021/12/30 00:23:09;;;;;;;1999.90;999.90;;;;;;;2.04;65.89;100333.94;4973786;28;97319;-74
2021/12/30 00:25:41;;;;;;;1999.90;999.90;;;;;;;2.01;66.34;100339.06;4983252;28;99630;-74
2021/12/30 00:28:13;;;;;;;1999.90;999.90;;;;;;;2.01;66.42;100343.41;4993407;28;100667;-73
2021/12/30 00:30:41;;;;;;;1999.90;999.90;;;;;;;2.02;66.42;100346.09;4988574;28;96903;-73
2021/12/30 00:33:10;;;;;;;1999.90;999.90;;;;;;;2.02;66.02;100343.47;4980009;28;97999;-73
2021/12/30 00:35:38;;;;;;;1999.90;999.90;;;;;;;2.04;65.72;100348.78;5005099;28;97783;-73
2021/12/30 00:38:06;;;;;;;1999.90;999.90;;;;;;;2.04;65.50;100346.16;4991507;28;97084;-72
2021/12/30 00:40:35;;;;;;;1999.90;999.90;;;;;;;2.04;66.55;100354.03;4993337;28;97213;-73
2021/12/30 00:43:03;;;;;;;1999.90;999.90;;;;;;;2.00;66.44;100354.72;4985662;28;98069;-72
2021/12/30 00:45:34;;;;;;;1999.90;999.90;;;;;;;1.96;66.36;100356.28;4978684;28;99264;-72
2021/12/30 00:48:03;;;;;;;1999.90;999.90;;;;;;;1.99;65.90;100366.03;4980117;28;100450;-73
2021/12/30 00:50:31;;;;;;;1999.90;999.90;;;;;;;1.96;66.77;100371.16;4980705;28;98301;-72
2021/12/30 00:53:00;;;;;;;1999.90;999.90;;;;;;;1.91;66.68;100376.16;4993729;28;98743;-73
2021/12/30 00:55:28;;;;;;;1999.90;999.90;;;;;;;1.88;66.77;100378.66;4980129;28;98611;-73
2021/12/30 00:57:56;;;;;;;1999.90;999.90;;;;;;;1.83;66.91;100374.91;4980095;28;98774;-73
2021/12/30 01:00:24;;;;;;;1999.90;999.90;;;;;;;1.81;66.81;100387.03;4981256;28;99060;-72
2021/12/30 01:02:53;;;;;;;1999.90;999.90;;;;;;;2.12;65.82;100390.38;4978206;28;96895;-72
2021/12/30 01:05:21;;;;;;;1999.90;999.90;;;;;;;1.97;66.92;100391.31;4980469;28;98760;-72
2021/12/30 01:07:49;;;;;;;1999.90;999.90;;;;;;;1.93;66.68;100392.88;4978922;28;98406;-72
2021/12/30 01:10:20;;;;;;;1999.90;999.90;;;;;;;1.93;67.05;100400.75;4978421;28;97152;-73
2021/12/30 01:12:48;;;;;;;1999.90;999.90;;;;;;;1.93;66.73;100411.25;4986092;28;98546;-74
2021/12/30 01:15:18;;;;;;;1999.90;999.90;;;;;;;1.92;67.13;100414.72;4977193;28;98271;-74
2021/12/30 01:17:51;;;;;;;1999.90;999.90;;;;;;;1.92;66.55;100432.16;4984476;28;99973;-74
2021/12/30 01:20:21;;;;;;;1999.90;999.90;;;;;;;1.92;66.84;100425.19;4988757;28;97333;-74
2021/12/30 01:22:50;;;;;;;1999.90;999.90;;;;;;;1.95;66.45;100427.06;4979017;28;97552;-73
2021/12/30 01:25:19;;;;;;;1999.90;999.90;;;;;;;1.96;66.90;100424.50;4982663;28;97079;-72
2021/12/30 01:27:47;;;;;;;1999.90;999.90;;;;;;;1.99;66.51;100426.38;4980335;28;97842;-74
2021/12/30 01:30:17;;;;;;;1999.90;999.90;;;;;;;2.00;66.66;100423.84;4981758;28;97181;-74
2021/12/30 01:32:45;;;;;;;1999.90;999.90;;;;;;;1.99;66.67;100424.69;4981671;28;99071;-74
2021/12/30 01:35:22;;;;;;;1999.90;999.90;;;;;;;2.01;66.64;100424.75;4982950;28;97958;-74
2021/12/30 01:37:51;;;;;;;1999.90;999.90;;;;;;;2.00;66.61;100423.84;4979532;28;99198;-73
2021/12/30 01:40:20;;;;;;;1999.90;999.90;;;;;;;2.02;67.16;100423.91;4985319;28;98039;-73
2021/12/30 01:42:49;;;;;;;1999.90;999.90;;;;;;;2.02;66.97;100437.94;4984654;28;96937;-72
2021/12/30 01:45:17;;;;;;;1999.90;999.90;;;;;;;2.02;66.89;100435.31;4982209;28;100151;-73
2021/12/30 01:47:51;;;;;;;1999.90;999.90;;;;;;;2.03;66.86;100434.50;4981095;28;97831;-74
2021/12/30 01:50:19;;;;;;;1999.90;999.90;;;;;;;2.06;66.54;100442.50;4983325;28;97216;-73
2021/12/30 01:52:47;;;;;;;1999.90;999.90;;;;;;;2.11;66.63;100438.41;4982929;28;96872;-73
2021/12/30 01:55:17;;;;;;;1999.90;999.90;;;;;;;2.15;66.77;100442.09;4986011;28;99255;-73
2021/12/30 01:57:46;;;;;;;1999.90;999.90;;;;;;;2.17;67.13;100436.09;4983506;28;97734;-74
2021/12/30 02:00:17;;;;;;;1999.90;999.90;;;;;;;2.20;67.07;100436.25;4980343;28;97640;-73
2021/12/30 02:02:45;;;;;;;1999.90;999.90;;;;;;;2.23;66.73;100439.84;4980331;28;98472;-74
2021/12/30 02:05:14;;;;;;;1999.90;999.90;;;;;;;2.25;66.69;100439.09;4980016;28;97769;-73
2021/12/30 02:07:43;;;;;;;1999.90;999.90;;;;;;;2.28;66.87;100454.09;4982557;28;98883;-73
2021/12/30 02:10:13;;;;;;;1999.90;999.90;;;;;;;2.31;67.02;100456.88;4979884;28;96896;-73
2021/12/30 02:12:43;;;;;;;1999.90;999.90;;;;;;;2.34;66.96;100444.81;4989811;28;96757;-74
2021/12/30 02:15:13;;;;;;;1999.90;999.90;;;;;;;2.38;66.74;100451.09;4980524;28;97962;-74
2021/12/30 02:17:40;;;;;;;1999.90;999.90;;;;;;;2.40;67.02;100459.97;4983641;28;100576;-74
2021/12/30 02:20:13;;;;;;;1999.90;999.90;;;;;;;2.42;66.50;100464.44;4978892;28;96769;-74
2021/12/30 02:22:41;;;;;;;1999.90;999.90;;;;;;;2.43;66.93;100458.38;4981245;28;96950;-74
2021/12/30 02:25:09;;;;;;;1999.90;999.90;;;;;;;2.46;66.77;100470.72;4983905;28;98299;-72
2021/12/30 02:27:37;;;;;;;1999.90;999.90;;;;;;;2.46;67.29;100479.53;5002240;28;99321;-73
2021/12/30 02:30:05;;;;;;;1999.90;999.90;;;;;;;2.48;67.32;100493.63;4986053;28;97939;-73
2021/12/30 02:32:33;;;;;;;1999.90;999.90;;;;;;;2.50;67.06;100484.09;4984293;28;96778;-74
2021/12/30 02:35:01;;;;;;;1999.90;999.90;;;;;;;2.52;67.39;100492.03;4984187;28;99742;-73
2021/12/30 02:37:30;;;;;;;1999.90;999.90;;;;;;;2.55;67.04;100503.59;4981857;28;98425;-73
2021/12/30 02:39:58;;;;;;;1999.90;999.90;;;;;;;2.58;66.84;100502.84;4985258;28;97828;-73
2021/12/30 02:42:26;;;;;;;1999.90;999.90;;;;;;;2.60;67.24;100501.22;4984293;28;96923;-73
2021/12/30 02:44:54;;;;;;;1999.90;999.90;;;;;;;2.64;66.66;100493.53;4982813;28;96739;-74
2021/12/30 02:47:24;;;;;;;1999.90;999.90;;;;;;;2.66;67.03;100491.88;4981821;28;97126;-73
2021/12/30 02:49:52;;;;;;;1999.90;999.90;;;;;;;2.69;67.64;100491.16;4985258;28;97296;-73
2021/12/30 02:52:19;;;;;;;1999.90;999.90;;;;;;;2.73;67.49;100498.34;4983489;28;97098;-73
2021/12/30 02:54:49;;;;;;;1999.90;999.90;;;;;;;2.76;67.44;100515.16;4987487;28;100480;-73
2021/12/30 02:57:16;;;;;;;1999.90;999.90;;;;;;;2.77;68.02;100529.16;4983702;28;99636;-74
2021/12/30 02:59:44;;;;;;;1999.90;999.90;;;;;;;2.78;67.93;100518.75;4989071;28;96945;-73
2021/12/30 03:02:12;;;;;;;1999.90;999.90;;;;;;;2.82;67.92;100525.06;4987367;28;96960;-73
2021/12/30 03:04:41;;;;;;;1999.90;999.90;;;;;;;2.86;67.53;100521.72;4987454;28;101144;-73
2021/12/30 03:07:09;;;;;;;1999.90;999.90;;;;;;;2.90;67.64;100528.94;4988613;28;98886;-74
2021/12/30 03:09:36;;;;;;;1999.90;999.90;;;;;;;2.94;67.74;100525.63;4987927;28;96950;-73
2021/12/30 03:12:06;;;;;;;1999.90;999.90;;;;;;;2.95;67.71;100536.22;4991416;28;96952;-73
2021/12/30 03:14:39;;;;;;;1999.90;999.90;;;;;;;2.99;67.98;100545.13;4987087;28;97252;-73
2021/12/30 03:17:06;;;;;;;1999.90;999.90;;;;;;;3.04;67.20;100530.47;4992515;28;97224;-73
2021/12/30 03:19:34;;;;;;;1999.90;999.90;;;;;;;3.08;67.20;100535.06;4985315;28;97045;-72
2021/12/30 03:22:02;;;;;;;1999.90;999.90;;;;;;;3.11;67.52;100543.97;4987368;28;96810;-72
2021/12/30 03:24:31;;;;;;;1999.90;999.90;;;;;;;3.15;67.20;100542.41;4986261;28;96661;-71
2021/12/30 03:26:59;;;;;;;1999.90;999.90;;;;;;;3.18;67.37;100543.44;5006892;28;97850;-73
2021/12/30 03:29:28;;;;;;;1999.90;999.90;;;;;;;3.21;67.47;100550.56;4982955;28;96765;-73
2021/12/30 03:31:55;;;;;;;1999.90;999.90;;;;;;;3.23;67.53;100556.81;4982797;28;96769;-74
2021/12/30 03:34:23;;;;;;;1999.90;999.90;;;;;;;3.28;67.18;100554.41;4985217;28;98901;-74
2021/12/30 03:36:51;;;;;;;1999.90;999.90;;;;;;;3.31;67.00;100555.44;4983108;28;100941;-73
2021/12/30 03:39:19;;;;;;;1999.90;999.90;;;;;;;3.35;66.98;100557.38;4981807;28;97260;-74
2021/12/30 03:41:47;;;;;;;1999.90;999.90;;;;;;;3.38;66.93;100564.50;4983452;28;97284;-74
2021/12/30 03:44:15;;;;;;;1999.90;999.90;;;;;;;3.41;67.13;100572.53;4988954;28;99127;-73
2021/12/30 03:46:44;;;;;;;1999.90;999.90;;;;;;;3.43;66.84;100579.69;4987147;28;98702;-73
2021/12/30 03:49:13;;;;;;;1999.90;999.90;;;;;;;3.47;66.85;100592.16;5015453;22;96953;-69
2021/12/30 03:51:41;;;;;;;1999.90;999.90;;;;;;;3.51;66.89;100598.44;4955438;28;98411;-72
2021/12/30 03:54:09;;;;;;;1999.90;999.90;;;;;;;3.50;67.08;100608.06;4962116;28;97698;-72
2021/12/30 03:56:36;;;;;;;1999.90;999.90;;;;;;;3.52;67.03;100609.03;4938796;28;99654;-71
2021/12/30 03:59:04;;;;;;;1999.90;999.90;;;;;;;3.52;67.33;100609.03;4965324;28;97126;-76
2021/12/30 04:01:32;;;;;;;1999.90;999.90;;;;;;;3.56;67.07;100621.50;4945840;28;96820;-71
2021/12/30 04:04:01;;;;;;;1999.90;999.90;;;;;;;3.58;66.87;100630.38;4945077;28;97845;-72
2021/12/30 04:06:29;;;;;;;1999.90;999.90;;;;;;;3.60;66.92;100628.72;4963585;28;100738;-72
2021/12/30 04:08:57;;;;;;;1999.90;999.90;;;;;;;3.63;66.97;100639.38;4963497;28;99209;-72
2021/12/30 04:11:26;;;;;;;1999.90;999.90;;;;;;;3.64;67.00;100656.06;4968339;28;97700;-72
2021/12/30 04:13:54;;;;;;;1999.90;999.90;;;;;;;3.66;66.93;100676.38;4964737;28;98770;-72
2021/12/30 04:16:22;;;;;;;1999.90;999.90;;;;;;;3.69;66.79;100680.88;4962216;28;99530;-74
2021/12/30 04:18:50;;;;;;;1999.90;999.90;;;;;;;3.68;66.85;100687.88;4963424;28;96706;-72
2021/12/30 04:21:20;;;;;;;1999.90;999.90;;;;;;;3.67;66.56;100688.72;4951382;28;96977;-72
2021/12/30 04:23:48;;;;;;;1999.90;999.90;;;;;;;3.66;66.70;100697.44;4947516;28;100473;-74
2021/12/30 04:26:16;;;;;;;1999.90;999.90;;;;;;;3.66;66.96;100700.06;4960503;28;97630;-71
2021/12/30 04:28:45;;;;;;;1999.90;999.90;;;;;;;3.67;67.09;100695.69;4966264;28;96889;-74
2021/12/30 04:31:14;;;;;;;1999.90;999.90;;;;;;;3.67;67.08;100693.97;4963000;28;97066;-73
2021/12/30 04:33:42;;;;;;;1999.90;999.90;;;;;;;3.70;67.25;100695.84;4947115;28;99455;-72
2021/12/30 04:36:10;;;;;;;1999.90;999.90;;;;;;;3.71;66.93;100695.94;4962269;28;99636;-73
2021/12/30 04:38:39;;;;;;;1999.90;999.90;;;;;;;3.73;66.77;100710.03;4959688;28;96824;-72
2021/12/30 04:41:07;;;;;;;1999.90;999.90;;;;;;;3.74;66.92;100714.50;4964138;28;96932;-72
2021/12/30 04:43:35;;;;;;;1999.90;999.90;;;;;;;3.74;66.94;100703.06;4958045;28;97815;-72
2021/12/30 04:46:03;;;;;;;1999.90;999.90;;;;;;;3.77;66.92;100701.47;4943844;28;99213;-72
2021/12/30 04:48:32;;;;;;;1999.90;999.90;;;;;;;3.79;66.99;100697.19;4962442;28;96933;-72
2021/12/30 04:50:59;;;;;;;1999.90;999.90;;;;;;;3.81;67.02;100697.25;4945692;28;97341;-71
2021/12/30 04:53:27;;;;;;;1999.90;999.90;;;;;;;3.82;66.50;100686.81;4958885;28;97684;-74
2021/12/30 04:55:56;;;;;;;1999.90;999.90;;;;;;;3.83;66.92;100685.97;4965636;28;100996;-74
2021/12/30 04:58:24;;;;;;;1999.90;999.90;;;;;;;3.84;66.89;100679.84;4942751;28;96997;-72
2021/12/30 05:00:52;;;;;;;1999.90;999.90;;;;;;;3.86;67.08;100674.69;4956048;28;98288;-72
2021/12/30 05:03:24;;;;;;;1999.90;999.90;;;;;;;3.86;67.11;100669.44;4949034;28;100621;-72
2021/12/30 05:05:53;;;;;;;1999.90;999.90;;;;;;;3.88;66.92;100668.66;4926417;28;99557;-73
2021/12/30 05:08:22;;;;;;;1999.90;999.90;;;;;;;3.89;66.86;100670.47;4964173;28;96983;-72
2021/12/30 05:10:51;;;;;;;1999.90;999.90;;;;;;;3.94;66.71;100678.56;4945171;28;97271;-73
2021/12/30 05:13:20;;;;;;;1999.90;999.90;;;;;;;3.95;66.62;100683.00;4924173;28;98608;-72
2021/12/30 05:15:48;;;;;;;1999.90;999.90;;;;;;;3.96;66.86;100675.19;4944651;28;97458;-73
2021/12/30 05:18:17;;;;;;;1999.90;999.90;;;;;;;3.98;66.54;100667.34;4947298;28;100155;-73
2021/12/30 05:20:44;;;;;;;1999.90;999.90;;;;;;;3.98;66.78;100664.72;4961942;28;96823;-72
2021/12/30 05:23:12;;;;;;;1999.90;999.90;;;;;;;3.97;66.66;100666.44;4960811;28;97393;-73
2021/12/30 05:25:40;;;;;;;1999.90;999.90;;;;;;;3.94;66.65;100653.16;4927203;28;98844;-73
2021/12/30 05:28:08;;;;;;;1999.90;999.90;;;;;;;3.94;66.83;100660.13;4965809;28;96780;-72
2021/12/30 05:30:37;;;;;;;1999.90;999.90;;;;;;;3.93;66.98;100655.72;4940375;28;98152;-74
2021/12/30 05:33:05;;;;;;;1999.90;999.90;;;;;;;3.92;67.19;100662.69;4961186;28;99532;-72
2021/12/30 05:35:33;;;;;;;1999.90;999.90;;;;;;;3.90;67.05;100656.47;4940408;28;98399;-72
2021/12/30 05:38:02;;;;;;;1999.90;999.90;;;;;;;3.89;67.13;100656.41;4958386;28;97155;-72
2021/12/30 05:40:30;;;;;;;1999.90;999.90;;;;;;;3.90;67.46;100660.81;4943953;28;97457;-73
2021/12/30 05:42:58;;;;;;;1999.90;999.90;;;;;;;3.92;67.40;100653.91;4941635;28;100378;-73
2021/12/30 05:45:26;;;;;;;1999.90;999.90;;;;;;;3.92;67.28;100660.06;4944082;28;98377;-73
2021/12/30 05:48:19;;;;;;;1999.90;999.90;;;;;;;4.26;66.59;100666.84;4961679;28;96884;-73
2021/12/30 05:50:47;;;;;;;1999.90;999.90;;;;;;;4.12;67.07;100669.78;4960784;28;97157;-72
2021/12/30 05:53:15;;;;;;;1999.90;999.90;;;;;;;4.08;67.02;100662.56;4962432;28;97284;-73
2021/12/30 05:55:42;;;;;;;1999.90;999.90;;;;;;;4.05;67.11;100670.31;4959688;28;97785;-73
2021/12/30 05:58:10;;;;;;;1999.90;999.90;;;;;;;4.04;67.12;100676.41;4958109;28;97726;-73
2021/12/30 06:00:38;;;;;;;1999.90;999.90;;;;;;;4.04;67.10;100670.28;4962691;28;96945;-73
2021/12/30 06:03:06;;;;;;;1999.90;999.90;;;;;;;4.01;67.00;100675.38;4959025;28;98736;-74
2021/12/30 06:05:35;;;;;;;1999.90;999.90;;;;;;;3.99;67.11;100672.69;4962286;28;97698;-74
2021/12/30 06:08:03;;;;;;;1999.90;999.90;;;;;;;3.98;67.04;100681.41;4958228;28;100275;-73
2021/12/30 06:10:30;;;;;;;1999.90;999.90;;;;;;;3.98;67.34;100675.25;4945877;28;99275;-71
2021/12/30 06:12:58;;;;;;;1999.90;999.90;;;;;;;3.98;67.17;100677.88;4958705;28;97774;-72
2021/12/30 06:15:26;;;;;;;1999.90;999.90;;;;;;;3.98;67.22;100681.41;4948990;28;98997;-72
2021/12/30 06:17:53;;;;;;;1999.90;999.90;;;;;;;3.99;67.12;100675.31;4965847;28;96784;-72
2021/12/30 06:20:21;;;;;;;1999.90;999.90;;;;;;;3.99;67.27;100677.94;4966918;28;99044;-73
2021/12/30 06:22:51;;;;;;;1999.90;999.90;;;;;;;3.99;67.18;100688.47;4946662;28;99378;-73
2021/12/30 06:25:19;;;;;;;1999.90;999.90;;;;;;;3.99;67.13;100680.56;4949735;28;100335;-72
2021/12/30 06:27:46;;;;;;;1999.90;999.90;;;;;;;4.03;67.38;100673.72;4934483;28;98526;-74
2021/12/30 06:30:14;;;;;;;1999.90;999.90;;;;;;;4.04;67.03;100663.25;4949421;28;97129;-71
2021/12/30 06:32:42;;;;;;;1999.90;999.90;;;;;;;4.08;66.89;100664.28;4947529;28;99466;-71
2021/12/30 06:35:10;;;;;;;1999.90;999.90;;;;;;;4.10;66.81;100681.06;4961563;28;98557;-72
2021/12/30 06:37:39;;;;;;;1999.90;999.90;;;;;;;4.13;66.79;100681.22;4952233;28;96898;-71
2021/12/30 06:40:11;;;;;;;1999.90;999.90;;;;;;;4.13;66.96;100676.81;4947391;28;96828;-70
2021/12/30 06:42:41;;;;;;;1999.90;999.90;;;;;;;4.17;66.68;100691.06;4967394;28;99277;-71
2021/12/30 06:45:09;;;;;;;1999.90;999.90;;;;;;;4.21;66.66;100701.78;4951174;28;98001;-71
2021/12/30 06:47:42;;;;;;;1999.90;999.90;;;;;;;4.26;66.98;100696.75;4966762;28;99283;-73
2021/12/30 06:50:11;;;;;;;1999.90;999.90;;;;;;;4.28;66.27;100718.75;4946251;28;96976;-72
2021/12/30 06:52:40;;;;;;;1999.90;999.90;;;;;;;4.30;66.43;100725.00;4967070;28;97030;-71
2021/12/30 06:55:10;;;;;;;1999.90;999.90;;;;;;;4.31;66.27;100707.47;4946574;28;100571;-73
2021/12/30 06:57:38;;;;;;;1999.90;999.90;;;;;;;4.33;66.26;100721.59;4962544;28;96624;-72
2021/12/30 07:00:07;;;;;;;1999.90;999.90;;;;;;;4.34;66.18;100736.56;4930225;28;96790;-72
2021/12/30 07:02:34;;;;;;;1999.90;999.90;;;;;;;4.36;66.18;100735.81;4946444;28;98906;-71
2021/12/30 07:05:03;;;;;;;1999.90;999.90;;;;;;;4.36;66.13;100732.28;4948367;28;98834;-72
2021/12/30 07:07:31;;;;;;;1999.90;999.90;;;;;;;4.37;66.16;100723.56;4953625;28;96688;-71
2021/12/30 07:09:59;;;;;;;1999.90;999.90;;;;;;;4.40;66.10;100728.94;4954158;28;98449;-73
2021/12/30 07:12:28;;;;;;;1999.90;999.90;;;;;;;4.41;65.95;100733.41;4966065;28;97488;-73
2021/12/30 07:14:57;;;;;;;1999.90;999.90;;;;;;;4.41;66.07;100736.03;4954753;28;99180;-72
2021/12/30 07:17:26;;;;;;;1999.90;999.90;;;;;;;4.42;66.10;100737.81;4953434;28;97100;-71
2021/12/30 07:19:53;;;;;;;1999.90;999.90;;;;;;;4.42;66.00;100751.00;4968366;28;96646;-70
2021/12/30 07:22:21;;;;;;;1999.90;999.90;;;;;;;4.41;65.99;100755.34;4964294;28;97180;-72
2021/12/30 07:25:09;;;;;;;1999.90;999.90;;;;;;;4.40;65.99;100753.56;4931020;28;98658;-72
2021/12/30 07:27:38;;;;;;;1999.90;999.90;;;;;;;4.38;65.96;100752.59;4962621;28;97322;-73
2021/12/30 07:30:06;;;;;;;1999.90;999.90;;;;;;;4.38;65.89;100746.41;4964440;28;97360;-72
2021/12/30 07:32:34;;;;;;;1999.90;999.90;;;;;;;4.36;65.82;100754.25;4938849;28;97608;-72
2021/12/30 07:35:02;;;;;;;1999.90;999.90;;;;;;;4.35;65.90;100752.47;4962179;28;98267;-72
2021/12/30 07:37:29;;;;;;;1999.90;999.90;;;;;;;4.30;65.81;100738.16;4961900;28;97478;-73
2021/12/30 07:39:57;;;;;;;1999.90;999.90;;;;;;;4.29;65.75;100730.19;4957067;28;97356;-74
2021/12/30 07:42:25;;;;;;;1999.90;999.90;;;;;;;4.27;65.89;100716.97;4959321;28;97426;-72
2021/12/30 07:44:54;;;;;;;1999.90;999.90;;;;;;;4.25;65.80;100718.63;4960289;28;97590;-72
2021/12/30 07:47:22;;;;;;;1999.90;999.90;;;;;;;4.23;65.78;100737.00;4945551;28;96826;-72
2021/12/30 07:49:49;;;;;;;1999.90;999.90;;;;;;;4.19;65.84;100742.94;4939789;28;97199;-73
2021/12/30 07:52:17;;;;;;;1999.90;999.90;;;;;;;4.17;65.64;100751.63;4962320;28;97670;-72
2021/12/30 07:54:45;;;;;;;1999.90;999.90;;;;;;;4.15;65.89;100753.28;4956497;28;97295;-72
2021/12/30 07:57:13;;;;;;;1999.90;999.90;;;;;;;4.12;65.75;100764.56;4941406;28;98102;-72
2021/12/30 07:59:40;;;;;;;1999.90;999.90;;;;;;;4.09;65.95;100774.97;4960451;28;97002;-72
2021/12/30 08:02:09;;;;;;;1999.90;999.90;;;;;;;4.06;65.85;100774.81;4939275;28;100803;-72
2021/12/30 08:04:37;;;;;;;1999.90;999.90;;;;;;;4.02;65.76;100767.56;4930993;28;100468;-73
2021/12/30 08:07:05;;;;;;;1999.90;999.90;;;;;;;4.01;65.85;100780.69;4963339;28;96971;-72
2021/12/30 08:09:33;;;;;;;1999.90;999.90;;;;;;;4.00;65.95;100794.69;4961396;28;97360;-72
2021/12/30 08:12:01;;;;;;;1999.90;999.90;;;;;;;3.97;65.82;100790.16;4947826;28;100315;-72
2021/12/30 08:14:29;;;;;;;1999.90;999.90;;;;;;;3.95;65.85;100796.22;4960222;28;101214;-73
2021/12/30 08:16:57;;;;;;;1999.90;999.90;;;;;;;3.92;65.98;100786.41;4929795;28;96931;-75
2021/12/30 08:19:26;;;;;;;1999.90;999.90;;;;;;;3.91;65.84;100782.00;4943576;28;96904;-73
2021/12/30 08:21:53;;;;;;;1999.90;999.90;;;;;;;3.90;65.90;100766.09;4963294;28;98095;-72
2021/12/30 08:24:22;;;;;;;1999.90;999.90;;;;;;;3.88;65.68;100751.97;4959219;28;97666;-72
2021/12/30 08:27:12;;;;;;;1999.90;999.90;;;;;;;3.86;65.94;100751.91;4961725;28;97331;-74
2021/12/30 08:29:39;;;;;;;1999.90;999.90;;;;;;;3.83;65.97;100754.41;4965417;28;97972;-72
2021/12/30 08:32:11;;;;;;;1999.90;999.90;;;;;;;3.83;65.91;100754.41;4947400;28;100576;-70
2021/12/30 08:34:41;;;;;;;1999.90;999.90;;;;;;;3.83;66.02;100756.13;4944411;28;99342;-74
2021/12/30 08:37:09;;;;;;;1999.90;999.90;;;;;;;3.84;65.93;100752.69;4938411;28;98593;-73
2021/12/30 08:39:36;;;;;;;1999.90;999.90;;;;;;;3.84;66.03;100757.94;4963932;28;96803;-74
2021/12/30 08:42:06;;;;;;;1999.90;999.90;;;;;;;3.83;65.91;100754.41;4944718;28;97667;-72
2021/12/30 08:44:33;;;;;;;1999.90;999.90;;;;;;;3.85;65.72;100755.38;4956500;28;98130;-73
2021/12/30 08:47:02;;;;;;;1999.90;999.90;;;;;;;3.87;65.84;100764.25;4955428;28;98783;-71
2021/12/30 08:49:30;;;;;;;1999.90;999.90;;;;;;;3.88;66.00;100767.75;4947135;28;98451;-73
2021/12/30 08:51:59;;;;;;;1999.90;999.90;;;;;;;3.88;65.88;100768.66;4946591;28;100618;-73
2021/12/30 08:54:26;;;;;;;1999.90;999.90;;;;;;;3.89;65.99;100780.09;4958683;28;97572;-75
2021/12/30 08:56:54;;;;;;;1999.90;999.90;;;;;;;3.88;65.88;100773.03;4960677;28;98075;-74
2021/12/30 08:59:22;;;;;;;1999.90;999.90;;;;;;;3.87;65.93;100785.31;4957538;28;97366;-75
2021/12/30 09:01:55;;;;;;;1999.90;999.90;;;;;;;3.87;65.84;100777.41;4927576;28;98027;-74
2021/12/30 09:04:23;;;;;;;1999.90;999.90;;;;;;;3.86;66.01;100774.72;4960997;28;98061;-73
2021/12/30 09:06:51;;;;;;;1999.90;999.90;;;;;;;3.86;66.12;100769.44;4955604;28;97521;-74
2021/12/30 09:09:21;;;;;;;1999.90;999.90;;;;;;;3.89;65.90;100772.22;4960161;28;98739;-76
2021/12/30 09:11:49;;;;;;;1999.90;999.90;;;;;;;3.89;66.04;100770.50;4941716;28;99170;-79
2021/12/30 09:14:17;;;;;;;1999.90;999.90;;;;;;;3.89;66.06;100759.06;4940965;28;98896;-78
2021/12/30 09:16:45;;;;;;;1999.90;999.90;;;;;;;3.94;66.03;100766.34;4960357;28;99076;-78
2021/12/30 09:19:13;;;;;;;1999.90;999.90;;;;;;;3.96;65.97;100772.59;4962175;28;97692;-79
2021/12/30 09:21:41;;;;;;;1999.90;999.90;;;;;;;3.98;66.08;100776.19;4948315;28;99397;-78
2021/12/30 09:24:11;;;;;;;1999.90;999.90;;;;;;;4.04;65.72;100776.47;4967917;28;97856;-76
2021/12/30 09:26:40;;;;;;;1999.90;999.90;;;;;;;4.07;65.80;100771.34;4970231;28;96832;-78
2021/12/30 09:29:11;;;;;;;1999.90;999.90;;;;;;;4.10;65.85;100779.38;4959316;28;99305;-78
2021/12/30 09:31:39;;;;;;;1999.90;999.90;;;;;;;4.40;64.93;100773.72;4957349;28;99061;-78
2021/12/30 09:34:08;;;;;;;1999.90;999.90;;;;;;;4.31;65.47;100770.69;4947267;28;100597;-79
2021/12/30 09:36:37;;;;;;;1999.90;999.90;;;;;;;4.32;65.48;100772.50;4950516;28;96831;-79
2021/12/30 09:39:07;;;;;;;1999.90;999.90;;;;;;;4.34;65.52;100770.81;4950712;28;97134;-78
2021/12/30 09:41:37;;;;;;;1999.90;999.90;;;;;;;4.37;65.30;100773.59;4943477;28;99284;-78
2021/12/30 09:44:07;;;;;;;1999.90;999.90;;;;;;;4.41;65.37;100783.47;4926063;28;99708;-78
2021/12/30 09:46:35;;;;;;;1999.90;999.90;;;;;;;4.41;65.29;100773.78;4945656;28;98809;-78
2021/12/30 09:49:05;;;;;;;1999.90;999.90;;;;;;;4.47;65.30;100767.91;4951632;28;98644;-79
2021/12/30 09:51:35;;;;;;;1999.90;999.90;;;;;;;4.48;65.09;100764.47;4952709;28;100548;-78
2021/12/30 09:54:03;;;;;;;1999.90;999.90;;;;;;;4.49;65.27;100774.16;4965403;28;98032;-77
2021/12/30 09:56:31;;;;;;;1999.90;999.90;;;;;;;4.52;65.09;100775.19;4962852;28;97260;-76
2021/12/30 09:58:59;;;;;;;1999.90;999.90;;;;;;;4.56;65.01;100778.84;4927160;28;97173;-78
2021/12/30 10:01:38;;;;;;;1999.90;999.90;;;;;;;4.59;64.97;100779.00;4957545;28;99873;-78
2021/12/30 10:04:07;;;;;;;1999.90;999.90;;;;;;;4.61;65.11;100782.63;4949409;28;102806;-79
2021/12/30 10:06:35;;;;;;;1999.90;999.90;;;;;;;4.65;64.88;100776.63;4954058;28;97161;-78
2021/12/30 10:09:11;;;;;;;1999.90;999.90;;;;;;;4.65;65.03;100768.72;4942242;28;98444;-80
2021/12/30 10:11:46;;;;;;;1999.90;999.90;;;;;;;4.67;64.92;100772.34;4955936;28;98440;-79
2021/12/30 10:14:26;;;;;;;1999.90;999.90;;;;;;;4.68;65.04;100779.44;4942295;28;97712;-79
2021/12/30 10:17:17;;;;;;;1999.90;999.90;;;;;;;4.72;64.84;100770.78;4945269;28;97519;-79
2021/12/30 10:19:46;;;;;;;1999.90;999.90;;;;;;;4.78;64.81;100768.44;4934681;28;97506;-78
2021/12/30 10:22:15;;;;;;;1999.90;999.90;;;;;;;4.81;64.80;100773.88;4964191;28;99036;-77
2021/12/30 10:24:43;;;;;;;1999.90;999.90;;;;;;;4.84;64.68;100774.91;4951752;28;99039;-77
2021/12/30 10:27:22;;;;;;;1999.90;999.90;;;;;;;4.85;64.78;100762.59;4947915;28;96889;-77
2021/12/30 10:29:50;;;;;;;1999.90;999.90;;;;;;;4.89;64.49;100765.44;4938278;28;98214;-78
2021/12/30 10:32:22;;;;;;;1999.90;999.90;;;;;;;4.91;64.50;100762.88;4965123;28;98173;-77
2021/12/30 10:35:08;;;;;;;1999.90;999.90;;;;;;;4.94;64.36;100763.00;4960780;28;98757;-77
2021/12/30 10:37:37;;;;;;;1999.90;999.90;;;;;;;4.97;64.31;100768.41;4941990;28;98605;-76
2021/12/30 10:40:07;;;;;;;1999.90;999.90;;;;;;;4.99;64.12;100769.41;4958780;28;97265;-75
2021/12/30 10:42:34;;;;;;;1999.90;999.90;;;;;;;5.01;64.38;100765.09;4947042;28;100699;-74
2021/12/30 10:45:04;;;;;;;1999.90;999.90;;;;;;;5.02;64.19;100759.91;4958751;28;98667;-74
2021/12/30 10:47:35;;;;;;;1999.90;999.90;;;;;;;5.04;64.19;100760.88;4943679;28;96872;-74
2021/12/30 10:50:07;;;;;;;1999.90;999.90;;;;;;;5.04;64.06;100760.88;4952595;28;98633;-74
2021/12/30 10:52:35;;;;;;;1999.90;999.90;;;;;;;5.03;64.39;100755.50;4948956;28;97757;-75
2021/12/30 10:55:12;;;;;;;1999.90;999.90;;;;;;;5.04;64.59;100763.50;4956199;28;99195;-75
2021/12/30 10:57:40;;;;;;;1999.90;999.90;;;;;;;5.04;64.57;100760.88;4973776;28;96889;-74
2021/12/30 11:00:09;;;;;;;1999.90;999.90;;;;;;;5.06;64.57;100758.31;4957126;28;97359;-75